createdAt,value
2019-03-31T08:22:09.668Z,11.20
2019-03-31T08:24:45.801Z,11.20
2019-03-31T08:27:16.816Z,11.10
2019-03-31T08:29:55.408Z,11.20
2019-03-31T08:32:19.274Z,11.30
2019-03-31T08:34:49.676Z,11.40
2019-03-31T08:37:20.056Z,11.40
2019-03-31T08:39:50.452Z,11.20
2019-03-31T08:42:20.821Z,11.10
2019-03-31T08:44:51.220Z,11.30
2019-03-31T08:47:21.757Z,12.60
2019-03-31T08:49:52.149Z,14.30
2019-03-31T08:52:22.528Z,16.90
2019-03-31T08:54:52.949Z,19.00
2019-03-31T08:57:23.324Z,20.00
2019-03-31T08:59:53.719Z,19.60
2019-03-31T09:02:25.722Z,19.20
2019-03-31T09:04:56.126Z,18.50
2019-03-31T09:07:26.509Z,17.30
2019-03-31T09:09:56.900Z,16.30
2019-03-31T09:12:27.273Z,15.20
2019-03-31T09:14:57.662Z,14.40
2019-03-31T09:17:28.035Z,13.60
2019-03-31T09:19:58.440Z,13.10
2019-03-31T09:22:28.806Z,12.80
2019-03-31T09:24:59.196Z,12.50
2019-03-31T09:27:29.563Z,12.30
2019-03-31T09:29:59.950Z,12.30
2019-03-31T09:32:30.317Z,12.30
2019-03-31T09:35:00.713Z,12.20
2019-03-31T09:37:31.080Z,12.00
2019-03-31T09:40:01.468Z,11.70
2019-03-31T09:42:31.831Z,11.30
2019-03-31T09:45:02.222Z,11.10
2019-03-31T09:47:32.586Z,11.10
2019-03-31T09:50:03.353Z,11.10
2019-03-31T09:52:33.711Z,11.30
2019-03-31T09:55:06.647Z,11.60
2019-03-31T09:57:37.030Z,11.80
2019-03-31T10:00:17.632Z,12.00
2019-03-31T10:02:48.008Z,12.20
2019-03-31T10:05:18.839Z,12.40
2019-03-31T10:07:49.203Z,12.80
2019-03-31T10:10:33.277Z,13.10
2019-03-31T10:13:03.641Z,13.30
2019-03-31T10:15:34.051Z,13.40
2019-03-31T10:18:04.402Z,13.30
2019-03-31T10:20:35.217Z,13.00
2019-03-31T10:23:06.027Z,12.90
2019-03-31T10:25:40.497Z,12.80
2019-03-31T10:28:10.830Z,12.60
2019-03-31T10:30:42.112Z,12.60
2019-03-31T10:33:12.476Z,12.60
2019-03-31T10:35:42.939Z,12.80
2019-03-31T10:38:13.314Z,14.00
2019-03-31T10:40:44.099Z,14.70
2019-03-31T10:43:14.466Z,14.90
2019-03-31T10:45:44.863Z,14.90
2019-03-31T10:48:20.967Z,15.90
2019-03-31T10:50:47.473Z,17.80
2019-03-31T10:53:18.058Z,20.10
2019-03-31T10:55:48.450Z,21.00
2019-03-31T10:58:18.992Z,20.30
2019-03-31T11:00:49.384Z,18.70
2019-03-31T11:03:20.086Z,17.80
2019-03-31T11:05:50.474Z,16.50
2019-03-31T11:08:20.829Z,15.50
2019-03-31T11:10:51.215Z,15.10
2019-03-31T11:13:21.661Z,14.50
2019-03-31T11:15:52.053Z,14.80
2019-03-31T11:18:22.536Z,18.00
2019-03-31T11:20:53.123Z,20.60
2019-03-31T11:23:25.403Z,20.80
2019-03-31T11:25:56.162Z,19.40
2019-03-31T11:28:26.532Z,17.80
2019-03-31T11:30:57.256Z,16.60
2019-03-31T11:33:27.694Z,15.90
2019-03-31T11:35:58.185Z,16.40
2019-03-31T11:38:28.642Z,16.50
2019-03-31T11:40:59.025Z,15.90
2019-03-31T11:43:29.403Z,15.60
2019-03-31T11:45:59.793Z,15.20
2019-03-31T11:48:30.154Z,16.60
2019-03-31T11:51:00.619Z,20.40
2019-03-31T11:53:31.014Z,23.80
2019-03-31T11:56:01.390Z,25.80
2019-03-31T11:58:35.866Z,27.30
2019-03-31T12:01:06.210Z,28.10
2019-03-31T12:03:36.671Z,28.00
2019-03-31T12:06:11.383Z,27.20
2019-03-31T12:08:41.971Z,28.40
2019-03-31T12:11:12.338Z,30.60
2019-03-31T12:13:42.728Z,30.50
2019-03-31T12:16:13.112Z,30.00
2019-03-31T12:18:43.489Z,26.60
2019-03-31T12:21:13.851Z,24.20
2019-03-31T12:23:44.226Z,22.20
2019-03-31T12:26:14.584Z,20.70
2019-03-31T12:28:44.974Z,20.20
2019-03-31T12:31:27.928Z,22.50
2019-03-31T12:33:59.373Z,25.10
2019-03-31T12:36:29.936Z,26.10
2019-03-31T12:39:00.348Z,27.70
2019-03-31T12:41:30.865Z,29.10
2019-03-31T12:44:01.240Z,29.90
2019-03-31T12:46:31.600Z,30.50
2019-03-31T12:49:02.318Z,29.60
2019-03-31T12:51:32.669Z,27.40
2019-03-31T12:54:03.060Z,25.40
2019-03-31T12:56:33.414Z,23.00
2019-03-31T12:59:04.050Z,21.10
2019-03-31T13:01:34.406Z,20.20
2019-03-31T13:04:05.051Z,19.70
2019-03-31T13:06:35.505Z,20.40
2019-03-31T13:09:08.522Z,21.10
2019-03-31T13:11:40.420Z,20.90
2019-03-31T13:14:10.926Z,20.60
2019-03-31T13:16:41.277Z,21.30
2019-03-31T13:19:11.722Z,22.70
2019-03-31T13:21:42.060Z,24.00
2019-03-31T13:24:12.620Z,23.80
2019-03-31T13:26:43.081Z,23.70
2019-03-31T13:29:13.515Z,24.20
2019-03-31T13:31:43.884Z,24.30
2019-03-31T13:34:15.316Z,24.30
2019-03-31T13:36:45.653Z,22.90
2019-03-31T13:39:16.135Z,20.70
2019-03-31T13:41:47.192Z,19.00
2019-03-31T13:44:18.078Z,18.50
2019-03-31T13:46:48.470Z,18.70
2019-03-31T13:49:18.867Z,19.00
2019-03-31T13:51:49.219Z,19.50
2019-03-31T13:54:19.604Z,19.80
2019-03-31T13:56:50.668Z,19.80
2019-03-31T13:59:21.232Z,19.50
2019-03-31T14:01:51.599Z,19.10
2019-03-31T14:04:21.980Z,18.90
2019-03-31T14:06:52.334Z,18.90
2019-03-31T14:09:22.721Z,19.10
2019-03-31T14:11:53.133Z,19.00
2019-03-31T14:14:23.528Z,19.40
2019-03-31T14:16:53.888Z,19.40
2019-03-31T14:19:24.332Z,19.40
2019-03-31T14:21:54.748Z,19.20
2019-03-31T14:24:26.970Z,19.20
2019-03-31T14:26:57.187Z,19.00
2019-03-31T14:29:27.569Z,18.80
2019-03-31T14:31:57.923Z,18.30
2019-03-31T14:34:28.338Z,17.80
2019-03-31T14:36:58.699Z,17.50
2019-03-31T14:39:30.150Z,17.00
2019-03-31T14:42:00.511Z,16.80
2019-03-31T14:44:30.905Z,16.50
2019-03-31T14:47:01.255Z,16.10
2019-03-31T14:49:31.648Z,15.80
2019-03-31T14:52:02.012Z,15.40
2019-03-31T14:54:32.394Z,15.00
2019-03-31T14:57:05.777Z,14.80
2019-03-31T14:59:34.846Z,14.70
2019-03-31T15:02:05.199Z,14.50
2019-03-31T15:04:35.580Z,14.40
2019-03-31T15:07:05.949Z,14.20
2019-03-31T15:09:36.327Z,14.10
2019-03-31T15:12:06.695Z,13.90
2019-03-31T15:14:37.085Z,13.90
2019-03-31T15:17:07.440Z,13.80
2019-03-31T15:19:37.820Z,13.70
2019-03-31T15:22:08.180Z,13.60
2019-03-31T15:24:38.581Z,13.30
2019-03-31T15:27:08.926Z,13.20
2019-03-31T15:29:39.320Z,13.20
2019-03-31T15:32:09.682Z,13.20
2019-03-31T15:34:40.062Z,13.20
2019-03-31T15:37:10.424Z,13.10
2019-03-31T15:39:40.813Z,13.20
2019-03-31T15:42:11.178Z,13.20
2019-03-31T15:44:41.566Z,13.10
2019-03-31T15:47:11.962Z,13.10
2019-03-31T15:49:42.326Z,12.90
2019-03-31T15:52:12.711Z,12.80
2019-03-31T15:54:43.079Z,12.60
2019-03-31T15:57:13.462Z,12.40
2019-03-31T15:59:53.839Z,12.20
2019-03-31T16:02:25.864Z,12.00
2019-03-31T16:04:56.249Z,11.90
2019-03-31T16:07:26.641Z,11.80
2019-03-31T16:09:57.005Z,11.80
2019-03-31T16:12:27.404Z,11.70
2019-03-31T16:14:57.764Z,11.60
2019-03-31T16:17:28.154Z,11.50
2019-03-31T16:19:58.510Z,11.50
2019-03-31T16:22:28.916Z,11.50
2019-03-31T16:25:00.918Z,11.50
2019-03-31T16:27:31.857Z,11.40
2019-03-31T16:30:02.282Z,11.30
2019-03-31T16:32:32.880Z,11.30
2019-03-31T16:35:03.740Z,11.20
2019-03-31T16:37:34.703Z,11.10
2019-03-31T16:40:07.854Z,11.00
2019-03-31T16:42:38.517Z,10.90
2019-03-31T16:45:09.066Z,10.70
2019-03-31T16:47:39.990Z,10.70
2019-03-31T16:50:11.323Z,10.50
2019-03-31T16:52:54.076Z,10.40
2019-03-31T16:55:24.724Z,10.30
2019-03-31T16:57:55.615Z,10.10
2019-03-31T17:00:26.151Z,10.00
2019-03-31T17:02:57.013Z,9.90
2019-03-31T17:05:27.707Z,9.90
2019-03-31T17:07:58.281Z,9.70
2019-03-31T17:10:29.191Z,9.70
2019-03-31T17:12:59.759Z,9.50
2019-03-31T17:15:30.246Z,9.50
2019-03-31T17:18:01.516Z,9.30
2019-03-31T17:20:33.738Z,9.20
2019-03-31T17:23:04.260Z,9.10
2019-03-31T17:25:34.802Z,9.00
2019-03-31T17:28:05.632Z,8.90
2019-03-31T17:30:36.193Z,8.80
2019-03-31T17:33:06.966Z,8.70
2019-03-31T17:35:38.869Z,8.60
2019-03-31T17:38:09.407Z,8.60
2019-03-31T17:40:40.046Z,8.50
2019-03-31T17:43:10.858Z,8.50
2019-03-31T17:45:41.419Z,8.40
2019-03-31T17:48:12.044Z,8.30
2019-03-31T17:50:44.128Z,8.20
2019-03-31T17:53:14.935Z,8.20
2019-03-31T17:55:45.353Z,8.10
2019-03-31T17:58:16.201Z,8.00
2019-03-31T18:00:46.605Z,7.80
2019-03-31T18:03:17.191Z,7.70
2019-03-31T18:05:48.857Z,7.60
2019-03-31T18:08:19.725Z,7.50
2019-03-31T18:10:50.211Z,7.40
2019-03-31T18:13:21.046Z,7.30
2019-03-31T18:15:51.712Z,7.20
2019-03-31T18:18:22.298Z,7.20
2019-03-31T18:20:53.073Z,7.10
2019-03-31T18:23:23.587Z,7.00
2019-03-31T18:25:54.005Z,6.90
2019-03-31T18:28:24.376Z,6.90
2019-03-31T18:30:54.730Z,6.80
2019-03-31T18:33:25.111Z,6.70
2019-03-31T18:35:55.709Z,6.60
2019-03-31T18:38:26.083Z,6.50
2019-03-31T18:40:56.440Z,6.40
2019-03-31T18:43:26.809Z,6.40
2019-03-31T18:45:57.349Z,6.30
2019-03-31T18:48:27.720Z,6.30
2019-03-31T18:50:58.159Z,6.20
2019-03-31T18:53:32.679Z,6.10
2019-03-31T18:56:13.501Z,6.10
2019-03-31T18:58:45.485Z,6.00
2019-03-31T19:01:33.799Z,5.90
2019-03-31T19:04:12.026Z,5.90
2019-03-31T19:06:44.031Z,5.80
2019-03-31T19:09:22.024Z,5.80
2019-03-31T19:12:10.616Z,5.70
2019-03-31T19:14:45.336Z,5.70
2019-03-31T19:17:34.642Z,5.60
2019-03-31T19:20:19.241Z,5.60
2019-03-31T19:22:51.237Z,5.50
2019-03-31T19:25:32.239Z,5.50
2019-03-31T19:28:10.422Z,5.50
2019-03-31T19:31:00.690Z,5.40
2019-03-31T19:33:48.909Z,5.40
2019-03-31T19:36:20.923Z,5.40
2019-03-31T19:39:09.474Z,5.30
2019-03-31T19:41:41.589Z,5.20
2019-03-31T19:44:29.906Z,5.20
2019-03-31T19:47:01.914Z,5.10
2019-03-31T19:49:36.855Z,5.10
2019-03-31T19:52:18.978Z,5.00
2019-03-31T19:54:57.088Z,4.90
2019-03-31T19:57:35.414Z,4.90
2019-03-31T20:00:09.950Z,4.90
2019-03-31T20:02:45.261Z,4.80
2019-03-31T20:05:23.501Z,4.80
2019-03-31T20:08:01.564Z,4.80
2019-03-31T20:10:33.622Z,4.80
2019-03-31T20:13:06.556Z,4.80
2019-03-31T20:15:38.573Z,4.80
2019-03-31T20:18:27.000Z,4.80
2019-03-31T20:21:31.862Z,4.80
2019-03-31T20:24:10.407Z,4.90
2019-03-31T20:26:42.851Z,4.80
2019-03-31T20:29:14.843Z,4.80
2019-03-31T20:31:46.863Z,4.80
2019-03-31T20:34:27.589Z,4.80
2019-03-31T20:37:15.800Z,4.80
2019-03-31T20:39:56.432Z,4.80
2019-03-31T20:42:24.190Z,4.70
2019-03-31T20:44:54.590Z,4.70
2019-03-31T20:47:24.977Z,4.60
2019-03-31T20:49:55.321Z,4.60
2019-03-31T20:52:25.735Z,4.50
2019-03-31T20:54:56.087Z,4.50
2019-03-31T20:57:26.471Z,4.40
2019-03-31T20:59:56.819Z,4.40
2019-03-31T21:02:27.194Z,4.30
2019-03-31T21:04:57.545Z,4.20
2019-03-31T21:07:28.885Z,4.20
2019-03-31T21:09:59.233Z,4.10
2019-03-31T21:12:29.636Z,4.00
2019-03-31T21:14:59.987Z,4.00
2019-03-31T21:17:30.382Z,3.90
2019-03-31T21:20:00.760Z,3.80
2019-03-31T21:22:31.115Z,3.80
2019-03-31T21:25:01.466Z,3.70
2019-03-31T21:27:31.853Z,3.60
2019-03-31T21:30:02.207Z,3.60
2019-03-31T21:32:32.576Z,3.50
2019-03-31T21:35:03.131Z,3.40
2019-03-31T21:37:33.488Z,3.40
2019-03-31T21:40:05.909Z,3.40
2019-03-31T21:42:36.265Z,3.30
2019-03-31T21:45:07.171Z,3.30
2019-03-31T21:47:37.516Z,3.20
2019-03-31T21:50:09.112Z,3.20
2019-03-31T21:52:39.459Z,3.10
2019-03-31T21:55:09.900Z,3.00
2019-03-31T21:57:40.255Z,3.00
2019-03-31T22:00:12.520Z,2.90
2019-03-31T22:02:44.476Z,2.90
2019-03-31T22:05:14.860Z,2.90
2019-03-31T22:07:45.205Z,2.90
2019-03-31T22:10:15.576Z,2.90
2019-03-31T22:12:46.016Z,2.80
2019-03-31T22:15:16.718Z,2.70
2019-03-31T22:17:47.220Z,2.70
2019-03-31T22:20:17.704Z,2.60
2019-03-31T22:22:48.064Z,2.60
2019-03-31T22:25:18.501Z,2.50
2019-03-31T22:27:48.791Z,2.40
2019-03-31T22:30:19.170Z,2.40
2019-03-31T22:32:49.515Z,2.30
2019-03-31T22:35:19.883Z,2.30
2019-03-31T22:37:50.238Z,2.20
2019-03-31T22:40:20.605Z,2.20
2019-03-31T22:42:50.952Z,2.10
2019-03-31T22:45:21.333Z,2.10
2019-03-31T22:47:51.690Z,2.10
2019-03-31T22:50:22.073Z,2.00
2019-03-31T22:52:52.428Z,2.00
2019-03-31T22:55:22.796Z,2.00
2019-03-31T22:57:53.150Z,2.00
2019-03-31T23:00:25.177Z,1.90
2019-03-31T23:02:55.520Z,1.90
2019-03-31T23:05:25.890Z,1.90
2019-03-31T23:07:56.249Z,1.90
2019-03-31T23:10:26.625Z,1.80
2019-03-31T23:12:56.975Z,1.80
2019-03-31T23:15:27.351Z,1.80
2019-03-31T23:17:57.700Z,1.70
2019-03-31T23:20:28.075Z,1.60
2019-03-31T23:22:58.432Z,1.50
2019-03-31T23:25:28.804Z,1.50
2019-03-31T23:27:59.153Z,1.40
2019-03-31T23:30:29.537Z,1.40
2019-03-31T23:32:59.884Z,1.40
2019-03-31T23:35:30.262Z,1.30
2019-03-31T23:38:00.613Z,1.30
2019-03-31T23:40:30.987Z,1.20
2019-03-31T23:43:01.336Z,1.20
2019-03-31T23:45:32.749Z,1.10
2019-03-31T23:48:03.102Z,1.10
2019-03-31T23:50:33.472Z,1.10
2019-03-31T23:53:03.845Z,1.00
2019-03-31T23:55:34.194Z,1.00
2019-03-31T23:58:04.635Z,0.90
